Airfield :
LOGIN :

Register | Disclaimer

   EN    FR    IT 

 










Legend :    VFR   Marginal VFR   IFR   Intensive IFR   Very Intensive IFR
Visi :
Ceiling :
>= 8 km
>= 3000ft
5 to 8 km
1000 to 3000 ft
1500m to 5 km
500 to 1000 ft
800 to 1500m
200 to 500 ft
< 800m
< 200 ft
Symbols :   Thunderstorms  Fog  Heavy snow  Heavy precipitations  Wind > 20 kt
SIGMETs :     Misc.  Thunderstorms  Icing  Turbulence  Mountain Waves  Volcanic Ashes







- Airport Elevation : 1197 ft
- IATA code : SPM


ETAD - Spangdahlem Ab

CURRENT METAR :
  • 210956Z AUTO 11007KT 9999 CLR 12/M02 A3053 RMK AO2 SLP337 T01161022 $

EXPIRED METARs :
  • 210856Z AUTO 08005KT 9999 CLR 09/01 A3054 RMK AO2 DZB25E30 SLP340 P0000 60000 T00930005 50002 $
  • 210756Z AUTO 00000KT 9999 CLR 07/01 A3054 RMK AO2 SLP342 T00690014 $

TAF TAF ETAD
Valid from the 21 at 05:00 until the 22 at 11:00 UTC


210500Z 2105/2211 06006KT 9999 FEW150 QNH3042INS TX14/2114Z TN01/2106Z
No reported NOTAMs for that airfield.



MET'MAP, your aeronautical weather chart ! - Copyright ORBIFLY December 2007 - Disclaimer

ORBIFLY MET'MAP TEAM :

Programming & Development : Alexandra Zaïnal
Concept & Development : Baudouin d'Aumeries
Co-Development & Prog : Marc-Olivier Méhu
Technical & hardware support : Manuel Goepfert

Contact : metmap@orbifly.com




SOURCES & CREDITS :

   NOAA